sensor_id;sensor_type;location;lat;lon;timestamp;pressure;altitude;pressure_sealevel;temperature;humidity
64362;BME280;50685;53.346;-6.296;2023-01-30T00:00:01;102282.78;;;6.55;73.28
64362;BME280;50685;53.346;-6.296;2023-01-30T00:02:26;102275.56;;;6.48;73.60
64362;BME280;50685;53.346;-6.296;2023-01-30T00:04:51;102269.28;;;6.43;73.48
64362;BME280;50685;53.346;-6.296;2023-01-30T00:07:16;102260.28;;;6.36;74.29
64362;BME280;50685;53.346;-6.296;2023-01-30T00:09:42;102267.16;;;6.31;74.72
64362;BME280;50685;53.346;-6.296;2023-01-30T00:12:07;102256.38;;;6.22;75.21
64362;BME280;50685;53.346;-6.296;2023-01-30T00:14:32;102271.22;;;6.18;75.64
64362;BME280;50685;53.346;-6.296;2023-01-30T00:16:57;102266.66;;;6.13;76.03
64362;BME280;50685;53.346;-6.296;2023-01-30T00:19:23;102263.91;;;6.09;76.12
64362;BME280;50685;53.346;-6.296;2023-01-30T00:21:48;102266.47;;;6.06;76.58
64362;BME280;50685;53.346;-6.296;2023-01-30T00:24:13;102273.41;;;6.04;76.73
64362;BME280;50685;53.346;-6.296;2023-01-30T00:26:38;102273.38;;;6.03;77.07
64362;BME280;50685;53.346;-6.296;2023-01-30T00:29:04;102273.41;;;6.04;76.93
64362;BME280;50685;53.346;-6.296;2023-01-30T00:31:29;102282.25;;;6.06;77.09
64362;BME280;50685;53.346;-6.296;2023-01-30T00:33:54;102280.63;;;6.10;76.44
64362;BME280;50685;53.346;-6.296;2023-01-30T00:36:20;102278.13;;;6.15;75.94
64362;BME280;50685;53.346;-6.296;2023-01-30T00:38:45;102278.19;;;6.18;76.00
64362;BME280;50685;53.346;-6.296;2023-01-30T00:41:10;102280.94;;;6.21;75.47
64362;BME280;50685;53.346;-6.296;2023-01-30T00:43:37;102273.94;;;6.23;74.44
64362;BME280;50685;53.346;-6.296;2023-01-30T00:46:26;102273.16;;;6.25;73.92
64362;BME280;50685;53.346;-6.296;2023-01-30T00:49:11;102282.03;;;6.29;73.43
64362;BME280;50685;53.346;-6.296;2023-01-30T00:51:36;102280.28;;;6.28;73.40
64362;BME280;50685;53.346;-6.296;2023-01-30T00:54:02;102278.47;;;6.27;73.44
64362;BME280;50685;53.346;-6.296;2023-01-30T00:56:27;102280.03;;;6.20;73.47
64362;BME280;50685;53.346;-6.296;2023-01-30T00:58:53;102270.25;;;6.16;73.92
64362;BME280;50685;53.346;-6.296;2023-01-30T01:01:18;102263.91;;;6.09;74.17
64362;BME280;50685;53.346;-6.296;2023-01-30T01:03:43;102274.38;;;6.06;74.39
64362;BME280;50685;53.346;-6.296;2023-01-30T01:06:09;102269.94;;;6.05;74.33
64362;BME280;50685;53.346;-6.296;2023-01-30T01:08:34;102269.13;;;6.08;74.34
64362;BME280;50685;53.346;-6.296;2023-01-30T01:10:59;102278.03;;;6.11;74.40
64362;BME280;50685;53.346;-6.296;2023-01-30T01:13:24;102279.03;;;6.17;73.98
64362;BME280;50685;53.346;-6.296;2023-01-30T01:15:50;102280.00;;;6.19;73.77
64362;BME280;50685;53.346;-6.296;2023-01-30T01:18:15;102282.63;;;6.19;73.17
64362;BME280;50685;53.346;-6.296;2023-01-30T01:20:40;102281.84;;;6.23;73.44
64362;BME280;50685;53.346;-6.296;2023-01-30T01:23:05;102286.31;;;6.25;73.09
64362;BME280;50685;53.346;-6.296;2023-01-30T01:25:31;102281.03;;;6.25;73.40
64362;BME280;50685;53.346;-6.296;2023-01-30T01:27:56;102290.81;;;6.28;73.23
64362;BME280;50685;53.346;-6.296;2023-01-30T01:30:21;102294.31;;;6.29;73.36
64362;BME280;50685;53.346;-6.296;2023-01-30T01:32:47;102291.72;;;6.30;73.19
64362;BME280;50685;53.346;-6.296;2023-01-30T01:35:12;102295.31;;;6.32;73.61
64362;BME280;50685;53.346;-6.296;2023-01-30T01:37:37;102297.94;;;6.32;73.40
64362;BME280;50685;53.346;-6.296;2023-01-30T01:40:03;102290.72;;;6.25;73.57
64362;BME280;50685;53.346;-6.296;2023-01-30T01:42:52;102290.34;;;6.13;73.67
64362;BME280;50685;53.346;-6.296;2023-01-30T01:45:21;102298.91;;;6.05;73.57
64362;BME280;50685;53.346;-6.296;2023-01-30T01:48:01;102291.69;;;6.00;73.94
64362;BME280;50685;53.346;-6.296;2023-01-30T01:51:11;102309.16;;;5.96;74.01
64362;BME280;50685;53.346;-6.296;2023-01-30T01:53:17;102299.34;;;5.92;73.78
64362;BME280;50685;53.346;-6.296;2023-01-30T01:55:43;102304.53;;;5.89;74.04
64362;BME280;50685;53.346;-6.296;2023-01-30T01:58:11;102293.84;;;5.84;73.80
64362;BME280;50685;53.346;-6.296;2023-01-30T02:00:39;102302.47;;;5.80;73.82
64362;BME280;50685;53.346;-6.296;2023-01-30T02:03:05;102297.19;;;5.78;74.26
64362;BME280;50685;53.346;-6.296;2023-01-30T02:05:33;102305.00;;;5.75;73.95
64362;BME280;50685;53.346;-6.296;2023-01-30T02:10:26;102307.63;;;5.75;73.97
64362;BME280;50685;53.346;-6.296;2023-01-30T02:12:54;102323.31;;;5.72;74.01
64362;BME280;50685;53.346;-6.296;2023-01-30T02:15:19;102320.59;;;5.69;74.11
64362;BME280;50685;53.346;-6.296;2023-01-30T02:17:45;102320.53;;;5.68;73.85
64362;BME280;50685;53.346;-6.296;2023-01-30T02:22:56;102316.16;;;5.68;73.88
64362;BME280;50685;53.346;-6.296;2023-01-30T02:28:03;102328.41;;;5.68;74.04
64362;BME280;50685;53.346;-6.296;2023-01-30T02:33:07;102320.97;;;5.82;73.19
64362;BME280;50685;53.346;-6.296;2023-01-30T02:45:41;102315.81;;;6.12;72.06
64362;BME280;50685;53.346;-6.296;2023-01-30T02:48:11;102316.75;;;6.16;71.99
64362;BME280;50685;53.346;-6.296;2023-01-30T02:50:45;102313.34;;;6.18;72.03
64362;BME280;50685;53.346;-6.296;2023-01-30T02:53:13;102319.50;;;6.19;72.08
64362;BME280;50685;53.346;-6.296;2023-01-30T02:55:39;102322.13;;;6.19;71.78
64362;BME280;50685;53.346;-6.296;2023-01-30T02:58:04;102329.16;;;6.18;71.65
64362;BME280;50685;53.346;-6.296;2023-01-30T03:08:33;102337.09;;;6.20;71.79
64362;BME280;50685;53.346;-6.296;2023-01-30T03:11:03;102331.88;;;6.21;71.57
64362;BME280;50685;53.346;-6.296;2023-01-30T03:18:39;102345.00;;;6.20;71.58
64362;BME280;50685;53.346;-6.296;2023-01-30T03:21:05;102345.88;;;6.20;71.87
64362;BME280;50685;53.346;-6.296;2023-01-30T03:23:31;102359.97;;;6.21;71.81
64362;BME280;50685;53.346;-6.296;2023-01-30T03:25:56;102347.72;;;6.23;71.85
64362;BME280;50685;53.346;-6.296;2023-01-30T03:28:22;102359.16;;;6.23;71.82
64362;BME280;50685;53.346;-6.296;2023-01-30T04:10:20;102396.47;;;6.08;72.23
64362;BME280;50685;53.346;-6.296;2023-01-30T08:19:52;102551.69;;;5.07;79.43
64362;BME280;50685;53.346;-6.296;2023-01-30T08:22:25;102547.31;;;5.07;79.73
64362;BME280;50685;53.346;-6.296;2023-01-30T08:24:52;102544.78;;;5.09;79.38
64362;BME280;50685;53.346;-6.296;2023-01-30T08:27:17;102548.38;;;5.12;79.17
64362;BME280;50685;53.346;-6.296;2023-01-30T08:29:45;102541.63;;;5.19;78.92
64362;BME280;50685;53.346;-6.296;2023-01-30T08:32:11;102545.28;;;5.23;78.29
64362;BME280;50685;53.346;-6.296;2023-01-30T08:34:46;102544.63;;;5.28;78.38
64362;BME280;50685;53.346;-6.296;2023-01-30T08:37:32;102543.88;;;5.33;78.01
64362;BME280;50685;53.346;-6.296;2023-01-30T08:40:16;102546.84;;;5.42;77.94
64362;BME280;50685;53.346;-6.296;2023-01-30T08:42:42;102532.06;;;5.45;77.67
64362;BME280;50685;53.346;-6.296;2023-01-30T08:45:08;102529.78;;;5.55;77.30
64362;BME280;50685;53.346;-6.296;2023-01-30T08:47:33;102546.75;;;5.63;76.88
64362;BME280;50685;53.346;-6.296;2023-01-30T08:49:59;102534.53;;;5.65;76.49
64362;BME280;50685;53.346;-6.296;2023-01-30T08:52:24;102529.22;;;5.63;76.62
64362;BME280;50685;53.346;-6.296;2023-01-30T08:54:50;102541.41;;;5.61;76.63
64362;BME280;50685;53.346;-6.296;2023-01-30T08:57:15;102542.28;;;5.60;76.88
64362;BME280;50685;53.346;-6.296;2023-01-30T08:59:40;102540.47;;;5.59;76.67
64362;BME280;50685;53.346;-6.296;2023-01-30T09:02:08;102549.25;;;5.60;76.96
64362;BME280;50685;53.346;-6.296;2023-01-30T09:04:33;102567.72;;;5.61;77.35
64362;BME280;50685;53.346;-6.296;2023-01-30T09:06:59;102574.69;;;5.59;77.08
64362;BME280;50685;53.346;-6.296;2023-01-30T09:09:24;102570.31;;;5.60;77.34
64362;BME280;50685;53.346;-6.296;2023-01-30T09:11:49;102571.22;;;5.60;77.09
64362;BME280;50685;53.346;-6.296;2023-01-30T09:14:15;102574.69;;;5.59;76.94
64362;BME280;50685;53.346;-6.296;2023-01-30T09:16:44;102579.03;;;5.59;77.33
64362;BME280;50685;53.346;-6.296;2023-01-30T09:19:09;102569.34;;;5.58;77.60
64362;BME280;50685;53.346;-6.296;2023-01-30T09:21:36;102586.94;;;5.59;77.37
64362;BME280;50685;53.346;-6.296;2023-01-30T09:24:03;102588.69;;;5.58;77.31
64362;BME280;50685;53.346;-6.296;2023-01-30T09:26:28;102588.69;;;5.58;77.63
64362;BME280;50685;53.346;-6.296;2023-01-30T09:28:53;102589.56;;;5.59;77.72
64362;BME280;50685;53.346;-6.296;2023-01-30T09:31:18;102587.84;;;5.59;77.70
64362;BME280;50685;53.346;-6.296;2023-01-30T09:33:44;102594.97;;;5.62;77.65
64362;BME280;50685;53.346;-6.296;2023-01-30T09:36:09;102591.41;;;5.61;77.49
64362;BME280;50685;53.346;-6.296;2023-01-30T09:38:34;102597.59;;;5.62;77.77
64362;BME280;50685;53.346;-6.296;2023-01-30T09:41:06;102589.72;;;5.62;77.83
64362;BME280;50685;53.346;-6.296;2023-01-30T09:43:47;102597.66;;;5.63;77.66
64362;BME280;50685;53.346;-6.296;2023-01-30T09:51:39;102612.88;;;5.72;77.73
64362;BME280;50685;53.346;-6.296;2023-01-30T09:56:32;102601.00;;;5.84;77.72
64362;BME280;50685;53.346;-6.296;2023-01-30T09:58:58;102612.66;;;5.90;76.96
64362;BME280;50685;53.346;-6.296;2023-01-30T10:04:17;102615.47;;;5.95;76.34
64362;BME280;50685;53.346;-6.296;2023-01-30T10:12:28;102636.78;;;6.01;76.35
64362;BME280;50685;53.346;-6.296;2023-01-30T10:27:47;102633.41;;;6.05;75.53
64362;BME280;50685;53.346;-6.296;2023-01-30T10:30:14;102635.22;;;6.06;75.56
64362;BME280;50685;53.346;-6.296;2023-01-30T10:32:41;102643.28;;;6.11;75.63
64362;BME280;50685;53.346;-6.296;2023-01-30T10:35:12;102653.81;;;6.11;75.24
64362;BME280;50685;53.346;-6.296;2023-01-30T10:37:55;102650.34;;;6.12;75.45
64362;BME280;50685;53.346;-6.296;2023-01-30T10:40:30;102651.28;;;6.14;75.39
64362;BME280;50685;53.346;-6.296;2023-01-30T10:45:32;102654.28;;;6.25;75.12
64362;BME280;50685;53.346;-6.296;2023-01-30T10:53:16;102636.44;;;6.42;74.04
64362;BME280;50685;53.346;-6.296;2023-01-30T10:55:50;102632.25;;;6.49;74.33
64362;BME280;50685;53.346;-6.296;2023-01-30T10:58:20;102631.53;;;6.53;74.28
64362;BME280;50685;53.346;-6.296;2023-01-30T11:03:27;102621.19;;;6.59;74.12
64362;BME280;50685;53.346;-6.296;2023-01-30T11:06:00;102626.47;;;6.59;74.22
64362;BME280;50685;53.346;-6.296;2023-01-30T11:08:29;102621.41;;;6.65;74.22
64362;BME280;50685;53.346;-6.296;2023-01-30T11:10:57;102624.28;;;6.73;73.98
64362;BME280;50685;53.346;-6.296;2023-01-30T11:13:26;102621.00;;;6.80;73.43
64362;BME280;50685;53.346;-6.296;2023-01-30T11:15:54;102621.16;;;6.85;73.18
64362;BME280;50685;53.346;-6.296;2023-01-30T11:18:20;102631.00;;;6.90;73.31
64362;BME280;50685;53.346;-6.296;2023-01-30T11:20:53;102622.16;;;6.88;72.96
64362;BME280;50685;53.346;-6.296;2023-01-30T11:25:49;102630.25;;;6.95;73.21
64362;BME280;50685;53.346;-6.296;2023-01-30T11:28:14;102629.47;;;6.97;72.97
64362;BME280;50685;53.346;-6.296;2023-01-30T11:30:43;102628.69;;;7.01;72.98
64362;BME280;50685;53.346;-6.296;2023-01-30T11:33:14;102635.00;;;7.06;73.14
64362;BME280;50685;53.346;-6.296;2023-01-30T11:35:56;102642.91;;;7.06;72.77
64362;BME280;50685;53.346;-6.296;2023-01-30T11:38:27;102641.25;;;7.08;73.10
64362;BME280;50685;53.346;-6.296;2023-01-30T11:43:31;102634.31;;;7.12;73.25
64362;BME280;50685;53.346;-6.296;2023-01-30T11:45:59;102640.44;;;7.11;73.13
64362;BME280;50685;53.346;-6.296;2023-01-30T11:48:26;102636.94;;;7.12;73.28
64362;BME280;50685;53.346;-6.296;2023-01-30T11:50:59;102638.59;;;7.08;73.59
64362;BME280;50685;53.346;-6.296;2023-01-30T11:53:44;102642.88;;;7.05;73.62
64362;BME280;50685;53.346;-6.296;2023-01-30T11:58:44;102631.34;;;7.01;74.12
64362;BME280;50685;53.346;-6.296;2023-01-30T12:01:14;102644.75;;;7.09;74.13
64362;BME280;50685;53.346;-6.296;2023-01-30T12:03:47;102643.19;;;7.14;73.65
64362;BME280;50685;53.346;-6.296;2023-01-30T12:06:47;102643.50;;;7.25;73.90
64362;BME280;50685;53.346;-6.296;2023-01-30T12:09:26;102647.22;;;7.32;73.35
64362;BME280;50685;53.346;-6.296;2023-01-30T12:11:51;102642.97;;;7.37;73.29
64362;BME280;50685;53.346;-6.296;2023-01-30T12:14:20;102649.28;;;7.42;73.15
64362;BME280;50685;53.346;-6.296;2023-01-30T12:19:33;102645.66;;;7.38;73.30
64362;BME280;50685;53.346;-6.296;2023-01-30T12:22:07;102653.69;;;7.42;73.33
64362;BME280;50685;53.346;-6.296;2023-01-30T12:24:43;102653.09;;;7.81;72.58
64362;BME280;50685;53.346;-6.296;2023-01-30T12:27:21;102643.78;;;8.27;71.22
64362;BME280;50685;53.346;-6.296;2023-01-30T12:32:24;102637.94;;;8.73;69.88
64362;BME280;50685;53.346;-6.296;2023-01-30T12:34:52;102633.09;;;8.56;69.26
64362;BME280;50685;53.346;-6.296;2023-01-30T12:39:57;102644.09;;;8.73;69.93
64362;BME280;50685;53.346;-6.296;2023-01-30T12:42:30;102636.81;;;8.63;69.55
64362;BME280;50685;53.346;-6.296;2023-01-30T12:45:17;102632.53;;;8.70;69.44
64362;BME280;50685;53.346;-6.296;2023-01-30T12:47:54;102634.94;;;8.95;69.07
64362;BME280;50685;53.346;-6.296;2023-01-30T12:50:29;102632.25;;;9.33;67.35
64362;BME280;50685;53.346;-6.296;2023-01-30T12:58:00;102622.19;;;9.58;66.51
64362;BME280;50685;53.346;-6.296;2023-01-30T13:05:51;102617.69;;;9.13;66.15
64362;BME280;50685;53.346;-6.296;2023-01-30T13:10:55;102615.56;;;9.38;65.15
64362;BME280;50685;53.346;-6.296;2023-01-30T13:13:26;102615.69;;;9.42;65.74
64362;BME280;50685;53.346;-6.296;2023-01-30T13:18:30;102610.75;;;9.61;65.07
64362;BME280;50685;53.346;-6.296;2023-01-30T13:21:00;102613.38;;;9.59;64.79
64362;BME280;50685;53.346;-6.296;2023-01-30T13:23:40;102608.69;;;9.46;65.31
64362;BME280;50685;53.346;-6.296;2023-01-30T13:26:10;102607.63;;;9.38;65.88
64362;BME280;50685;53.346;-6.296;2023-01-30T13:28:38;102603.94;;;9.29;66.14
64362;BME280;50685;53.346;-6.296;2023-01-30T13:31:07;102608.84;;;9.11;66.17
64362;BME280;50685;53.346;-6.296;2023-01-30T13:33:36;102609.47;;;9.00;66.79
64362;BME280;50685;53.346;-6.296;2023-01-30T13:36:05;102611.97;;;8.94;66.36
64362;BME280;50685;53.346;-6.296;2023-01-30T13:38:33;102605.91;;;8.98;66.50
64362;BME280;50685;53.346;-6.296;2023-01-30T13:40:58;102601.50;;;8.99;64.45
64362;BME280;50685;53.346;-6.296;2023-01-30T13:43:46;102614.63;;;8.96;64.29
64362;BME280;50685;53.346;-6.296;2023-01-30T13:46:10;102611.19;;;8.98;63.29
64362;BME280;50685;53.346;-6.296;2023-01-30T13:51:42;102610.41;;;9.03;61.61
64362;BME280;50685;53.346;-6.296;2023-01-30T13:56:50;102604.13;;;8.97;60.98
64362;BME280;50685;53.346;-6.296;2023-01-30T14:09:35;102574.59;;;9.19;61.92
64362;BME280;50685;53.346;-6.296;2023-01-30T14:12:01;102575.53;;;9.22;60.86
64362;BME280;50685;53.346;-6.296;2023-01-30T14:14:34;102552.44;;;9.15;61.46
64362;BME280;50685;53.346;-6.296;2023-01-30T14:17:12;102578.16;;;9.21;61.42
64362;BME280;50685;53.346;-6.296;2023-01-30T14:19:39;102570.09;;;9.14;61.65
64362;BME280;50685;53.346;-6.296;2023-01-30T14:22:16;102572.66;;;9.11;62.08
64362;BME280;50685;53.346;-6.296;2023-01-30T14:24:43;102572.66;;;9.11;62.24
64362;BME280;50685;53.346;-6.296;2023-01-30T14:27:23;102582.28;;;9.08;62.17
64362;BME280;50685;53.346;-6.296;2023-01-30T14:29:49;102582.25;;;9.06;62.04
64362;BME280;50685;53.346;-6.296;2023-01-30T14:39:57;102581.94;;;8.92;62.91
64362;BME280;50685;53.346;-6.296;2023-01-30T14:42:27;102579.25;;;8.91;63.22
64362;BME280;50685;53.346;-6.296;2023-01-30T14:45:13;102573.94;;;8.91;63.70
64362;BME280;50685;53.346;-6.296;2023-01-30T14:47:39;102573.06;;;8.90;63.64
64362;BME280;50685;53.346;-6.296;2023-01-30T14:50:12;102577.44;;;8.88;63.31
64362;BME280;50685;53.346;-6.296;2023-01-30T14:52:41;102587.09;;;8.86;63.11
64362;BME280;50685;53.346;-6.296;2023-01-30T14:55:22;102588.78;;;8.82;62.99
64362;BME280;50685;53.346;-6.296;2023-01-30T14:57:55;102578.81;;;8.72;63.59
64362;BME280;50685;53.346;-6.296;2023-01-30T15:00:23;102601.94;;;8.81;63.70
64362;BME280;50685;53.346;-6.296;2023-01-30T15:02:55;102598.44;;;8.80;63.85
64362;BME280;50685;53.346;-6.296;2023-01-30T15:05:31;102599.31;;;8.81;63.74
64362;BME280;50685;53.346;-6.296;2023-01-30T15:08:08;102608.09;;;8.80;63.69
64362;BME280;50685;53.346;-6.296;2023-01-30T15:10:51;102580.47;;;8.67;63.48
64362;BME280;50685;53.346;-6.296;2023-01-30T15:21:22;102592.00;;;8.69;63.96
64362;BME280;50685;53.346;-6.296;2023-01-30T15:24:36;102603.34;;;8.65;63.79
64362;BME280;50685;53.346;-6.296;2023-01-30T15:27:02;102605.13;;;8.66;64.03
64362;BME280;50685;53.346;-6.296;2023-01-30T15:32:01;102593.59;;;8.64;64.23
64362;BME280;50685;53.346;-6.296;2023-01-30T15:34:30;102585.66;;;8.64;64.37
64362;BME280;50685;53.346;-6.296;2023-01-30T15:36:56;102564.31;;;8.55;64.46
64362;BME280;50685;53.346;-6.296;2023-01-30T15:39:25;102587.41;;;8.62;64.82
64362;BME280;50685;53.346;-6.296;2023-01-30T15:41:52;102587.38;;;8.60;64.57
64362;BME280;50685;53.346;-6.296;2023-01-30T15:51:51;102581.75;;;8.48;66.08
64362;BME280;50685;53.346;-6.296;2023-01-30T15:54:18;102576.53;;;8.49;66.19
64362;BME280;50685;53.346;-6.296;2023-01-30T15:56:44;102578.25;;;8.49;66.29
64362;BME280;50685;53.346;-6.296;2023-01-30T15:59:25;102577.41;;;8.50;66.37
64362;BME280;50685;53.346;-6.296;2023-01-30T16:01:58;102571.25;;;8.49;66.39
64362;BME280;50685;53.346;-6.296;2023-01-30T16:04:27;102571.25;;;8.49;66.81
64362;BME280;50685;53.346;-6.296;2023-01-30T16:59:44;102559.81;;;8.17;70.15
64362;BME280;50685;53.346;-6.296;2023-01-30T17:05:37;102578.13;;;8.09;70.66
64362;BME280;50685;53.346;-6.296;2023-01-30T17:11:30;102577.97;;;8.04;71.51
64362;BME280;50685;53.346;-6.296;2023-01-30T17:20:48;102555.66;;;7.92;72.30
64362;BME280;50685;53.346;-6.296;2023-01-30T17:29:36;102563.44;;;7.87;72.83
64362;BME280;50685;53.346;-6.296;2023-01-30T17:32:25;102544.03;;;7.86;72.86
64362;BME280;50685;53.346;-6.296;2023-01-30T17:34:53;102556.34;;;7.86;72.58
64362;BME280;50685;53.346;-6.296;2023-01-30T17:50:12;102523.69;;;7.82;72.45
64362;BME280;50685;53.346;-6.296;2023-01-30T17:53:13;102518.34;;;7.79;72.57
64362;BME280;50685;53.346;-6.296;2023-01-30T17:55:49;102511.25;;;7.78;72.66
64362;BME280;50685;53.346;-6.296;2023-01-30T17:58:46;102504.19;;;7.77;72.89
64362;BME280;50685;53.346;-6.296;2023-01-30T18:01:30;102505.16;;;7.81;72.85
64362;BME280;50685;53.346;-6.296;2023-01-30T18:26:17;102475.13;;;7.77;73.05
64362;BME280;50685;53.346;-6.296;2023-01-30T18:35:33;102464.53;;;7.76;73.09
64362;BME280;50685;53.346;-6.296;2023-01-30T19:01:27;102444.78;;;7.96;73.34
64362;BME280;50685;53.346;-6.296;2023-01-30T19:04:10;102445.69;;;7.97;73.33
64362;BME280;50685;53.346;-6.296;2023-01-30T19:23:25;102459.84;;;7.65;74.11
64362;BME280;50685;53.346;-6.296;2023-01-30T19:29:21;102407.09;;;7.33;74.20
64362;BME280;50685;53.346;-6.296;2023-01-30T19:47:39;102423.72;;;7.64;74.46
64362;BME280;50685;53.346;-6.296;2023-01-30T19:53:35;102403.50;;;7.63;74.56
64362;BME280;50685;53.346;-6.296;2023-01-30T20:02:59;102405.19;;;7.61;74.96
64362;BME280;50685;53.346;-6.296;2023-01-30T20:13:19;102393.84;;;7.65;75.00
64362;BME280;50685;53.346;-6.296;2023-01-30T20:27:03;102377.69;;;7.88;74.49
64362;BME280;50685;53.346;-6.296;2023-01-30T20:34:49;102348.75;;;7.94;74.41
64362;BME280;50685;53.346;-6.296;2023-01-30T20:37:44;102354.09;;;7.97;74.62
64362;BME280;50685;53.346;-6.296;2023-01-30T20:59:39;102315.69;;;8.13;74.77
64362;BME280;50685;53.346;-6.296;2023-01-30T21:04:43;102328.09;;;8.16;74.75
64362;BME280;50685;53.346;-6.296;2023-01-30T21:15:29;102321.97;;;8.18;75.18
64362;BME280;50685;53.346;-6.296;2023-01-30T21:18:16;102323.69;;;8.15;75.19
64362;BME280;50685;53.346;-6.296;2023-01-30T21:23:34;102325.53;;;8.19;75.89
64362;BME280;50685;53.346;-6.296;2023-01-30T21:26:07;102315.84;;;8.19;76.05
64362;BME280;50685;53.346;-6.296;2023-01-30T21:28:40;102319.56;;;8.29;76.55
64362;BME280;50685;53.346;-6.296;2023-01-30T21:33:41;102311.88;;;8.40;77.50
64362;BME280;50685;53.346;-6.296;2023-01-30T21:41:42;102290.81;;;8.43;77.02
64362;BME280;50685;53.346;-6.296;2023-01-30T21:50:19;102289.72;;;8.33;76.17
64362;BME280;50685;53.346;-6.296;2023-01-30T21:52:56;102284.38;;;8.32;75.98
64362;BME280;50685;53.346;-6.296;2023-01-30T21:55:58;102272.03;;;8.31;76.10
64362;BME280;50685;53.346;-6.296;2023-01-30T22:01:29;102278.22;;;8.33;76.18
64362;BME280;50685;53.346;-6.296;2023-01-30T22:07:03;102263.44;;;8.43;76.53
64362;BME280;50685;53.346;-6.296;2023-01-30T22:12:28;102258.16;;;8.43;76.74
64362;BME280;50685;53.346;-6.296;2023-01-30T22:15:01;102248.50;;;8.43;76.78
64362;BME280;50685;53.346;-6.296;2023-01-30T22:17:30;102255.50;;;8.41;77.16
64362;BME280;50685;53.346;-6.296;2023-01-30T22:20:10;102241.31;;;8.38;77.45
64362;BME280;50685;53.346;-6.296;2023-01-30T22:23:02;102242.06;;;8.30;77.64
64362;BME280;50685;53.346;-6.296;2023-01-30T22:28:23;102246.28;;;8.20;77.96
64362;BME280;50685;53.346;-6.296;2023-01-30T22:31:00;102255.03;;;8.19;77.89
64362;BME280;50685;53.346;-6.296;2023-01-30T22:33:44;102248.03;;;8.20;77.47
64362;BME280;50685;53.346;-6.296;2023-01-30T22:39:16;102244.56;;;8.24;77.28
64362;BME280;50685;53.346;-6.296;2023-01-30T22:42:18;102243.72;;;8.25;77.23
64362;BME280;50685;53.346;-6.296;2023-01-30T22:44:58;102232.28;;;8.25;77.01
64362;BME280;50685;53.346;-6.296;2023-01-30T22:47:27;102234.91;;;8.25;77.34
64362;BME280;50685;53.346;-6.296;2023-01-30T22:56:14;102223.31;;;8.18;77.76
64362;BME280;50685;53.346;-6.296;2023-01-30T22:59:06;102237.47;;;8.20;77.94
64362;BME280;50685;53.346;-6.296;2023-01-30T23:04:34;102225.16;;;8.22;78.00
64362;BME280;50685;53.346;-6.296;2023-01-30T23:09:58;102218.25;;;8.29;78.28
64362;BME280;50685;53.346;-6.296;2023-01-30T23:12:43;102202.44;;;8.32;78.45
64362;BME280;50685;53.346;-6.296;2023-01-30T23:15:29;102208.72;;;8.37;78.39
64362;BME280;50685;53.346;-6.296;2023-01-30T23:17:56;102223.66;;;8.35;78.52
64362;BME280;50685;53.346;-6.296;2023-01-30T23:20:43;102207.81;;;8.36;79.20
64362;BME280;50685;53.346;-6.296;2023-01-30T23:23:25;102202.53;;;8.38;78.95
64362;BME280;50685;53.346;-6.296;2023-01-30T23:25:56;102195.53;;;8.40;79.21
64362;BME280;50685;53.346;-6.296;2023-01-30T23:28:34;102204.41;;;8.42;79.38
64362;BME280;50685;53.346;-6.296;2023-01-30T23:34:09;102197.34;;;8.43;79.47
64362;BME280;50685;53.346;-6.296;2023-01-30T23:36:43;102206.19;;;8.43;79.40
64362;BME280;50685;53.346;-6.296;2023-01-30T23:42:20;102195.63;;;8.45;79.35
64362;BME280;50685;53.346;-6.296;2023-01-30T23:47:31;102200.16;;;8.49;80.01
64362;BME280;50685;53.346;-6.296;2023-01-30T23:53:03;102179.09;;;8.54;81.03
64362;BME280;50685;53.346;-6.296;2023-01-30T23:55:39;102178.16;;;8.51;81.84
64362;BME280;50685;53.346;-6.296;2023-01-30T23:58:32;102170.19;;;8.50;82.14
